createdAt,value
2022-09-26T00:01:20.902Z,11.10
2022-09-26T00:03:51.073Z,11.10
2022-09-26T00:06:20.093Z,11.10
2022-09-26T00:08:50.821Z,11.10
2022-09-26T00:11:22.380Z,11.10
2022-09-26T00:13:53.528Z,11.10
2022-09-26T00:18:50.867Z,11.10
2022-09-26T00:23:49.823Z,11.30
2022-09-26T00:26:20.454Z,11.20
2022-09-26T00:28:49.227Z,11.20
2022-09-26T00:31:19.626Z,11.30
2022-09-26T00:41:16.170Z,11.20
2022-09-26T00:43:46.680Z,11.30
2022-09-26T00:46:26.856Z,11.30
2022-09-26T00:49:04.280Z,11.30
2022-09-26T00:51:33.925Z,11.30
2022-09-26T00:54:02.689Z,11.30
2022-09-26T00:56:37.458Z,11.30
2022-09-26T00:59:09.438Z,11.30
2022-09-26T01:01:37.937Z,11.30
2022-09-26T01:04:07.560Z,11.30
2022-09-26T01:09:08.762Z,11.30
2022-09-26T01:11:40.100Z,11.30
2022-09-26T01:14:09.837Z,11.30
2022-09-26T01:16:40.135Z,11.30
2022-09-26T01:19:21.840Z,11.30
2022-09-26T01:22:20.077Z,11.30
2022-09-26T01:24:56.634Z,11.30
2022-09-26T01:27:45.591Z,11.30
2022-09-26T01:30:17.771Z,11.20
2022-09-26T01:33:21.766Z,11.20
2022-09-26T01:36:06.368Z,11.20
2022-09-26T01:38:45.492Z,11.20
2022-09-26T01:41:29.243Z,11.20
2022-09-26T01:44:06.290Z,11.20
2022-09-26T01:46:40.974Z,11.20
2022-09-26T01:49:15.400Z,11.20
2022-09-26T01:51:51.918Z,11.20
2022-09-26T01:54:24.821Z,11.20
2022-09-26T01:56:58.317Z,11.20
2022-09-26T01:59:30.981Z,11.10
2022-09-26T02:02:08.196Z,11.20
2022-09-26T02:04:40.021Z,11.10
2022-09-26T02:07:13.870Z,11.10
2022-09-26T02:09:44.546Z,11.10
2022-09-26T02:12:17.788Z,11.10
2022-09-26T02:14:49.375Z,11.20
2022-09-26T02:17:22.910Z,11.10
2022-09-26T02:20:00.002Z,11.20
2022-09-26T02:22:33.715Z,11.10
2022-09-26T02:32:32.149Z,11.00
2022-09-26T02:35:01.441Z,11.00
2022-09-26T02:37:30.965Z,11.00
2022-09-26T02:39:59.084Z,11.00
2022-09-26T02:42:33.250Z,11.00
2022-09-26T02:45:26.646Z,11.00
2022-09-26T02:48:18.054Z,11.60
2022-09-26T02:51:02.685Z,11.00
2022-09-26T02:53:49.143Z,11.00
2022-09-26T02:56:27.277Z,11.00
2022-09-26T02:59:01.990Z,11.00
2022-09-26T03:01:35.104Z,11.00
2022-09-26T03:04:09.437Z,13.60
2022-09-26T03:06:43.268Z,11.00
2022-09-26T03:09:14.806Z,11.00
2022-09-26T03:11:44.292Z,10.90
2022-09-26T03:14:13.142Z,10.90
2022-09-26T03:16:45.652Z,10.90
2022-09-26T03:19:19.731Z,10.90
2022-09-26T03:21:47.933Z,10.90
2022-09-26T03:24:15.971Z,11.60
2022-09-26T03:26:44.584Z,10.20
2022-09-26T03:29:12.760Z,10.90
2022-09-26T03:34:09.680Z,10.90
2022-09-26T03:39:07.762Z,10.80
2022-09-26T03:41:35.626Z,10.90
2022-09-26T03:44:04.218Z,10.90
2022-09-26T03:49:07.673Z,10.90
2022-09-26T03:51:35.581Z,10.90
2022-09-26T03:54:05.102Z,10.90
2022-09-26T03:56:33.141Z,10.80
2022-09-26T04:01:29.364Z,10.80
2022-09-26T04:03:58.773Z,10.80
2022-09-26T04:06:26.889Z,10.90
2022-09-26T04:08:54.996Z,10.80
2022-09-26T04:11:25.318Z,10.90
2022-09-26T04:13:54.352Z,8.50
2022-09-26T04:16:23.783Z,10.90
2022-09-26T04:18:56.741Z,10.90
2022-09-26T04:21:26.977Z,10.90
2022-09-26T04:23:57.650Z,10.90
2022-09-26T04:28:57.629Z,11.00
2022-09-26T04:31:27.662Z,10.90
2022-09-26T04:33:55.962Z,11.00
2022-09-26T04:36:24.608Z,11.00
2022-09-26T04:41:22.548Z,11.00
2022-09-26T04:43:54.393Z,11.80
2022-09-26T04:46:29.729Z,11.00
2022-09-26T04:49:00.378Z,11.00
2022-09-26T04:51:31.174Z,11.30
2022-09-26T04:54:00.792Z,11.00
2022-09-26T04:56:31.421Z,11.10
2022-09-26T05:01:31.116Z,11.10
2022-09-26T05:06:27.792Z,11.10
2022-09-26T05:09:02.439Z,11.00
2022-09-26T05:16:40.914Z,11.00
2022-09-26T05:40:35.378Z,10.80
2022-09-26T05:48:06.998Z,10.70
2022-09-26T05:50:40.479Z,10.70
2022-09-26T05:58:41.646Z,10.60
2022-09-26T06:01:11.907Z,10.60
2022-09-26T06:06:13.327Z,10.50
2022-09-26T06:08:42.853Z,10.50
2022-09-26T06:29:28.118Z,10.50
2022-09-26T06:34:27.180Z,10.50
2022-09-26T06:36:55.107Z,10.60
2022-09-26T06:39:30.782Z,10.70
2022-09-26T06:41:58.805Z,10.80
2022-09-26T06:44:26.768Z,10.80
2022-09-26T06:54:22.300Z,10.70
2022-09-26T06:59:19.911Z,10.80
2022-09-26T07:01:48.279Z,10.80
2022-09-26T07:06:46.394Z,11.00
2022-09-26T07:09:14.631Z,10.90
2022-09-26T07:14:37.951Z,11.00
2022-09-26T07:17:05.982Z,11.00
2022-09-26T07:19:33.984Z,11.00
2022-09-26T07:22:02.020Z,11.00
2022-09-26T07:26:58.615Z,11.10
2022-09-26T07:34:27.265Z,11.20
2022-09-26T07:45:17.160Z,11.30
2022-09-26T07:50:15.141Z,11.40
2022-09-26T07:55:21.993Z,11.50
2022-09-26T08:05:25.531Z,12.20
2022-09-26T08:10:24.552Z,11.70
2022-09-26T08:15:23.477Z,11.90
2022-09-26T08:17:51.978Z,11.90
2022-09-26T08:30:31.540Z,12.40
2022-09-26T08:38:09.095Z,12.20
2022-09-26T08:40:46.725Z,12.20
2022-09-26T08:43:33.688Z,12.40
2022-09-26T08:46:33.064Z,12.30
2022-09-26T08:49:24.912Z,12.20
2022-09-26T08:51:58.008Z,12.20
2022-09-26T08:54:36.714Z,12.10
2022-09-26T08:57:08.722Z,12.20
2022-09-26T08:59:41.778Z,12.20
2022-09-26T09:02:25.496Z,12.50
2022-09-26T09:05:01.837Z,12.50
2022-09-26T09:10:06.194Z,12.60
2022-09-26T09:12:43.923Z,12.60
2022-09-26T09:15:28.954Z,12.50
2022-09-26T09:18:13.233Z,12.60
2022-09-26T09:20:53.595Z,12.60
2022-09-26T09:23:44.848Z,12.50
2022-09-26T09:29:30.411Z,12.40
2022-09-26T09:34:31.153Z,12.30
2022-09-26T09:37:04.080Z,12.30
2022-09-26T09:39:37.185Z,12.50
2022-09-26T09:42:11.149Z,12.70
2022-09-26T09:44:47.117Z,12.70
2022-09-26T09:47:17.769Z,12.80
2022-09-26T09:49:48.193Z,12.90
2022-09-26T09:52:32.225Z,12.90
2022-09-26T09:55:17.342Z,13.10
2022-09-26T09:58:16.802Z,13.10
2022-09-26T10:00:51.596Z,13.20
2022-09-26T10:03:26.775Z,13.30
2022-09-26T10:05:59.666Z,13.40
2022-09-26T10:08:32.244Z,13.40
2022-09-26T10:11:13.137Z,13.40
2022-09-26T10:13:43.478Z,13.50
2022-09-26T10:16:15.302Z,13.50
2022-09-26T10:19:00.781Z,13.50
2022-09-26T10:21:34.338Z,13.90
2022-09-26T10:24:04.966Z,13.80
2022-09-26T10:29:08.958Z,13.70
2022-09-26T10:31:42.936Z,13.70
2022-09-26T10:34:24.872Z,13.70
2022-09-26T10:39:41.536Z,13.60
2022-09-26T10:42:18.826Z,13.40
2022-09-26T10:44:48.124Z,13.40
2022-09-26T10:47:18.953Z,13.30
2022-09-26T10:49:51.974Z,12.70
2022-09-26T10:52:25.735Z,12.30
2022-09-26T10:54:59.638Z,12.00
2022-09-26T10:57:34.665Z,11.70
2022-09-26T11:02:36.180Z,11.40
2022-09-26T11:05:24.497Z,11.50
2022-09-26T11:10:26.104Z,11.70
2022-09-26T11:13:03.685Z,12.00
2022-09-26T11:20:46.991Z,12.40
2022-09-26T11:23:27.317Z,12.60
2022-09-26T11:26:03.515Z,12.80
2022-09-26T11:28:37.198Z,12.80
2022-09-26T11:31:14.502Z,13.00
2022-09-26T11:36:41.920Z,13.20
2022-09-26T11:39:33.543Z,13.20
2022-09-26T11:42:15.946Z,13.30
2022-09-26T11:44:55.779Z,13.20
2022-09-26T11:48:13.643Z,13.70
2022-09-26T11:50:54.938Z,14.00
2022-09-26T11:53:42.171Z,14.00
2022-09-26T11:56:27.408Z,13.90
2022-09-26T11:59:07.203Z,14.10
2022-09-26T12:01:47.134Z,14.00
2022-09-26T12:04:37.390Z,14.00
2022-09-26T12:07:18.960Z,14.30
2022-09-26T12:10:06.674Z,14.50
2022-09-26T12:12:42.247Z,14.80
2022-09-26T12:15:22.131Z,14.60
2022-09-26T12:18:04.303Z,14.40
2022-09-26T12:20:39.457Z,14.30
2022-09-26T12:23:18.004Z,14.30
2022-09-26T12:26:02.084Z,14.30
2022-09-26T12:28:47.889Z,14.30
2022-09-26T12:31:23.954Z,14.30
2022-09-26T12:34:10.607Z,14.20
2022-09-26T12:36:52.531Z,14.10
2022-09-26T12:39:52.305Z,14.00
2022-09-26T12:42:46.605Z,13.80
2022-09-26T12:45:34.640Z,13.80
2022-09-26T12:48:21.957Z,13.80
2022-09-26T12:51:02.318Z,13.90
2022-09-26T12:53:50.120Z,13.90
2022-09-26T12:56:23.700Z,13.80
2022-09-26T12:59:07.134Z,13.80
2022-09-26T13:02:03.095Z,13.80
2022-09-26T13:04:55.090Z,13.70
2022-09-26T13:07:38.711Z,13.50
2022-09-26T13:10:25.769Z,13.50
2022-09-26T13:13:24.095Z,13.60
2022-09-26T13:16:07.170Z,14.20
2022-09-26T13:18:43.738Z,14.20
2022-09-26T13:21:15.055Z,14.70
2022-09-26T13:23:53.923Z,15.60
2022-09-26T13:26:29.137Z,16.00
2022-09-26T13:29:17.294Z,16.10
2022-09-26T13:31:55.543Z,16.30
2022-09-26T13:34:32.138Z,16.30
2022-09-26T13:37:02.355Z,16.30
2022-09-26T13:39:38.579Z,16.40
2022-09-26T13:42:11.325Z,16.70
2022-09-26T13:44:57.659Z,16.80
2022-09-26T13:47:38.023Z,17.00
2022-09-26T13:50:23.367Z,16.80
2022-09-26T13:53:07.338Z,16.30
2022-09-26T13:58:08.171Z,16.10
2022-09-26T14:00:49.010Z,16.10
2022-09-26T14:03:38.815Z,15.90
2022-09-26T14:06:28.852Z,15.50
2022-09-26T14:09:29.550Z,15.40
2022-09-26T14:12:21.877Z,15.30
2022-09-26T14:15:16.280Z,15.30
2022-09-26T14:18:13.189Z,15.60
2022-09-26T14:20:57.704Z,15.70
2022-09-26T14:26:39.139Z,19.30
2022-09-26T14:29:27.111Z,19.40
2022-09-26T14:35:00.677Z,18.90
2022-09-26T14:37:33.314Z,18.10
2022-09-26T14:40:29.316Z,18.10
2022-09-26T14:43:01.574Z,18.80
2022-09-26T14:45:48.348Z,18.70
2022-09-26T14:48:27.379Z,19.20
2022-09-26T14:51:01.627Z,19.30
2022-09-26T14:53:38.305Z,18.90
2022-09-26T14:56:10.813Z,18.90
2022-09-26T14:58:50.965Z,19.10
2022-09-26T15:01:30.202Z,19.10
2022-09-26T15:04:03.206Z,19.00
2022-09-26T15:10:56.281Z,18.60
2022-09-26T15:13:52.969Z,18.70
2022-09-26T15:16:32.817Z,18.80
2022-09-26T15:19:07.438Z,19.20
2022-09-26T15:21:43.931Z,19.40
2022-09-26T15:24:30.318Z,19.00
2022-09-26T15:30:39.336Z,18.80
2022-09-26T15:33:41.034Z,18.60
2022-09-26T15:36:29.379Z,18.50
2022-09-26T15:44:24.352Z,19.00
2022-09-26T15:46:58.814Z,18.40
2022-09-26T15:52:00.001Z,18.30
2022-09-26T15:54:34.480Z,18.40
2022-09-26T15:57:06.714Z,18.10
2022-09-26T15:59:41.147Z,17.80
2022-09-26T16:02:24.262Z,17.80
2022-09-26T16:04:56.033Z,17.70
2022-09-26T16:07:34.453Z,17.70
2022-09-26T16:10:06.133Z,17.70
2022-09-26T16:15:07.596Z,16.80
2022-09-26T16:17:37.702Z,16.50
2022-09-26T16:20:25.434Z,16.20
2022-09-26T16:23:26.571Z,16.10
2022-09-26T16:25:56.550Z,15.60
2022-09-26T16:28:42.543Z,15.10
2022-09-26T16:31:20.472Z,15.10
2022-09-26T16:33:52.995Z,15.10
2022-09-26T16:36:24.733Z,14.80
2022-09-26T16:38:57.191Z,14.70
2022-09-26T16:42:00.723Z,14.70
2022-09-26T16:44:33.457Z,14.60
2022-09-26T16:47:05.564Z,14.60
2022-09-26T16:49:46.114Z,14.50
2022-09-26T16:52:34.803Z,14.40
2022-09-26T16:55:07.541Z,11.80
2022-09-26T16:57:38.951Z,14.30
2022-09-26T17:00:33.307Z,14.10
2022-09-26T17:15:32.830Z,13.80
2022-09-26T17:20:30.054Z,13.60
2022-09-26T17:25:55.366Z,13.50
2022-09-26T17:28:32.674Z,13.40
2022-09-26T17:33:49.517Z,13.30
2022-09-26T17:36:23.820Z,13.30
2022-09-26T17:48:56.467Z,13.30
2022-09-26T17:56:29.956Z,13.20
2022-09-26T18:04:06.442Z,13.10
2022-09-26T18:14:17.161Z,13.00
2022-09-26T18:21:44.589Z,13.00
2022-09-26T18:24:19.948Z,13.00
2022-09-26T18:26:56.893Z,12.90
2022-09-26T18:32:04.225Z,12.90
2022-09-26T18:34:32.822Z,12.90
2022-09-26T18:37:05.453Z,12.90
2022-09-26T18:39:35.785Z,12.90
2022-09-26T18:42:09.788Z,12.90
2022-09-26T18:47:14.909Z,12.90
2022-09-26T18:49:46.290Z,12.90
2022-09-26T19:02:38.609Z,12.80
2022-09-26T19:05:09.820Z,12.90
2022-09-26T19:10:15.573Z,12.80
2022-09-26T19:15:15.769Z,12.70
2022-09-26T19:27:50.490Z,12.70
2022-09-26T19:30:21.330Z,12.70
2022-09-26T19:32:52.474Z,12.70
2022-09-26T19:35:39.262Z,12.60
2022-09-26T19:38:18.527Z,12.60
2022-09-26T19:51:07.416Z,12.50
2022-09-26T19:53:37.025Z,12.60
2022-09-26T20:01:15.105Z,12.50
2022-09-26T20:06:15.605Z,12.40
2022-09-26T20:14:00.243Z,12.30
2022-09-26T20:36:26.638Z,12.00
2022-09-26T20:38:57.079Z,12.00
2022-09-26T20:41:32.996Z,11.90
2022-09-26T20:44:06.476Z,11.90
2022-09-26T20:46:39.348Z,11.90
2022-09-26T20:49:15.065Z,11.90
2022-09-26T20:51:45.550Z,11.90
2022-09-26T20:54:25.379Z,11.90
2022-09-26T21:04:31.271Z,11.80
2022-09-26T21:06:59.875Z,11.70
2022-09-26T21:09:28.378Z,11.70
2022-09-26T21:19:28.061Z,11.60
2022-09-26T21:24:32.879Z,11.50
2022-09-26T21:32:04.515Z,8.80
2022-09-26T21:34:34.506Z,11.30
2022-09-26T21:37:04.283Z,11.20
2022-09-26T21:42:04.865Z,11.20
2022-09-26T21:44:39.610Z,11.20
2022-09-26T21:52:11.110Z,11.20
2022-09-26T21:54:44.170Z,11.10
2022-09-26T21:57:15.497Z,11.10
2022-09-26T22:36:57.711Z,11.10
2022-09-26T22:44:40.530Z,11.10
2022-09-26T22:47:08.677Z,11.20
2022-09-26T22:52:06.967Z,11.20
